Manolis Mandalos

Chefscout - Atromitos
4 Apr 2027
Sonntag
Verarbeitung

Persönlichkeit

Anpassungsfähigkeit (10) Ehrgeiz (4) Kontroverse (1) Loyalität (19) Druck (20) Professionalität (11) Fairness (12) Temperament (6)

Profil

Trainerstil Demokratisch
Lizenz Nationale A
Entschlossenheit 7
Menschenführung 4
Motivation 10
Disziplin 4
Arbeitszufriedenheit
98%
Ermüdung
0%
Rolle Chefscout
Gehalt 22.2K p/W
Vertrag 14.03.2030

Leistung

Verhalten Gut
Trainingseffektivität
36%
Spielerentwicklung
35%
Verletzungsprävention
45%
Taktische Umsetzung
50%

Letzte Ereignisse

Nahm an einer Scouting-Besprechung teil jetzt
Nahm an einer Scouting-Besprechung teil 7T her
Empfahl ein Transferziel 7T her
Empfahl ein Transferziel 7T her
Nahm an einer Scouting-Besprechung teil 14T her
Empfahl ein Transferziel 14T her
Empfahl ein Transferziel 14T her
Empfahl ein Transferziel 21T her

Aktuell beobachtet

105
Spieler Verein Status Fähigkeit Vertrauen Beobachtet Zuletzt beobachtet Letzte Stimme
Juho Lähteenmäki FC Nordsjaelland Aktiv 127 / 122 40% 4 05.02.2027 -
Luther Ngcobo Ajax Cape Town Aktiv 91 / 115 40% 4 05.02.2027 -
Jakub Adkonis Lechia Aktiv 95 / 95 40% 2 05.02.2027 -
Axel Frugone Defensor Sporting Aktiv 116 / 110 40% 2 04.02.2027 -
Isaac Frimpong Hearts of Oak Aktiv 81 / 99 40% 1 04.02.2027 -
Théo Hansen Hobro Aktiv 92 / 98 40% 2 03.02.2027 -
Davinchi Getafe Aktiv 120 / 132 40% 5 01.02.2027 -
Milan Roganović Partizan Aktiv 114 / 114 40% 2 01.02.2027 -
James Dornelly Peterborough United Aktiv 107 / 111 40% 7 30.01.2027 -
Arjan Malić Sturm Graz Aktiv 124 / 113 40% 6 29.01.2027 -
Stepan Laskin Dinamo Moscow Aktiv 79 / 81 40% 3 29.01.2027 -
Surprise Manthosi Polokwane City Aktiv 94 / 81 40% 3 29.01.2027 -
Agustín Obregón River Plate Aktiv 101 / 127 40% 2 28.01.2027 -
Facundo Di Biasi Gimnasia La Plata Aktiv 118 / 132 40% 1 28.01.2027 -
Matteo Pérez Vinlöf Dinamo Zagreb Aktiv 120 / 118 40% 3 26.01.2027 -
Dmitry Borodin Dinamo St Petersburg Aktiv 69 / 85 40% 1 26.01.2027 -
Thiago Silvero River Plate Aktiv 115 / 118 40% 1 24.01.2027 -
Simphiwe Selepe Orlando Pirates Aktiv 111 / 132 40% 5 23.01.2027 -
Samuel Lucero Defensa y Justicia Aktiv 120 / 108 40% 2 22.01.2027 -
Kaick FC Dallas Aktiv 106 / 125 40% 2 22.01.2027 -
Tiago Freitas Benfica Aktiv 111 / 116 40% 3 22.01.2027 -
Martim Cunha Porto Aktiv 92 / 115 40% 1 20.01.2027 -
Ronan Kpakio Preston Aktiv 113 / 117 40% 2 19.01.2027 -
Maldini Kacurri Grimsby Town Aktiv 88 / 108 40% 2 18.01.2027 -
Jake Batty Burton Albion Aktiv 101 / 105 40% 2 17.01.2027 -
Panagiotis Katsikas OFI Aktiv 96 / 91 79% 1 11.01.2027 Befürworten
Apostolos Apostolopoulos Panetolikos Verloren 100 / 98 79% 1 07.01.2027 Befürworten
Mpho Khethang AS Police Aktiv 74 / 99 40% 1 31.12.2026 -
Jofre Torrents Ajax Aktiv 116 / 128 40% 3 30.12.2026 -
Lucas Agazzi Defensor Sporting Aktiv 119 / 127 40% 2 30.12.2026 -
Andrija Bulatović RC Lens Aktiv 128 / 132 40% 2 28.12.2026 -
Santiago Fernández Talleres Aktiv 117 / 121 40% 2 22.12.2026 -
Charalabos Erotokritou Doxa Aktiv 78 / 83 40% 1 22.12.2026 -
Salvador Blopá Sporting CP Aktiv 112 / 116 40% 1 22.12.2026 -
Brooklyn Raines New England Revolution Aktiv 104 / 116 40% 2 21.12.2026 -
Teo Rodríguez Pagano San Lorenzo Aktiv 116 / 106 40% 1 16.12.2026 -
Cemran Dansin Orlando Pirates Aktiv 107 / 101 40% 3 14.12.2026 -
Petar Antolković Sesvete Aktiv 93 / 101 40% 1 14.12.2026 -
Ognjen Ugrešić PAOK Aktiv 113 / 128 40% 1 11.12.2026 -
Mohamed Cherif Haïdara SonderjyskE Aktiv 106 / 104 40% 2 10.12.2026 -
Norbert Weiss FK Senica Aktiv 99 / 108 40% 1 09.12.2026 -
Sergey Chernov Zenit Aktiv 75 / 91 40% 1 06.12.2026 -
Juan Pablo De la Reta Maipú Aktiv 113 / 123 40% 1 04.12.2026 -
Eduardo Felicíssimo Sporting CP Aktiv 105 / 117 40% 1 04.12.2026 -
Jakob Vester Sandefjord Aktiv 99 / 113 40% 1 03.12.2026 -
Nikita Stoinov Dinamo Bucharest Aktiv 121 / 122 40% 4 02.12.2026 -
Roger Hinojo Espanyol Aktiv 110 / 126 40% 3 02.12.2026 -
Vanja Dragojević Partizan Aktiv 111 / 126 40% 1 27.11.2026 -
Filip Taraba Istra 1961 Aktiv 99 / 119 40% 3 24.11.2026 -
Tobías Andrada River Plate Aktiv 106 / 126 40% 1 18.11.2026 -
Ezra Mayers West Ham United Aktiv 119 / 121 40% 2 13.11.2026 -
Pedro Bravo FC Midtjylland Aktiv 129 / 132 40% 1 13.11.2026 -
Dylan Gorosito Boca Juniors Aktiv 115 / 128 40% 1 10.11.2026 -
Maxim Balakhonov Dinamo Moscow Aktiv 80 / 79 40% 1 09.11.2026 -
Felipe Schaare Racing Club Aktiv 87 / 103 40% 1 07.11.2026 -
Guillermo Borthagaray Wanderers Aktiv 99 / 112 40% 1 07.11.2026 -
Markus Walker OB Aktiv 101 / 104 40% 1 05.11.2026 -
Godwin Oham Warri Wolves Aktiv 83 / 86 40% 2 21.10.2026 -
Luis Engelns TSG Hoffenheim Aktiv 110 / 114 40% 1 21.10.2026 -
Sergio Oregel Chicago Fire Aktiv 111 / 121 40% 3 18.10.2026 -
Mikhail Ryadno Baltika Aktiv 95 / 108 40% 2 18.10.2026 -
Siyabonga Mabunda FCSB Aktiv 88 / 106 40% 1 18.10.2026 -
Luther Phiri SuperSport United Aktiv 119 / 127 40% 2 17.10.2026 -
Mauricio Amaro Atlanta United FC Aktiv 115 / 133 40% 4 16.10.2026 -
Matías Gómez Celta Aktiv 117 / 120 40% 1 16.10.2026 -
Vinícius Lira Santos Aktiv 109 / 112 40% 1 15.10.2026 -
Leonardo Barroso Chicago Fire Aktiv 115 / 120 40% 1 12.10.2026 -
Alejo Gelsomino Gimnasia La Plata Aktiv 100 / 106 40% 1 11.10.2026 -
Charlie Tasker Brighton Aktiv 92 / 96 40% 1 11.10.2026 -
Alex Opoku Sarfo Aris Aktiv 118 / 111 40% 4 10.10.2026 -
Goforth Amedu Warri Wolves Aktiv 85 / 81 40% 1 09.10.2026 -
Pablo Aguiar Gimnasia La Plata Aktiv 107 / 102 40% 1 08.10.2026 -
Faustino Messina Estudiantes Aktiv 104 / 100 40% 1 08.10.2026 -
Mikel Amondarain Bologna Aktiv 124 / 123 40% 1 08.10.2026 -
Ilja Rozhkov Rubin Aktiv 112 / 122 40% 1 05.10.2026 -
Harrison Armstrong Everton Aktiv 126 / 141 40% 1 14.09.2026 -
Cristian Mihai Dinamo Bucharest Aktiv 104 / 118 40% 1 12.09.2026 -
Mbekezeli Mbokazi Chicago Fire Aktiv 129 / 113 40% 1 12.09.2026 -
Ezequiel Moya Chacarita Juniors Aktiv 84 / 102 40% 1 11.09.2026 -
Mateo Ovalle Argentinos Juniors Aktiv 98 / 117 40% 1 09.09.2026 -
Matai Akinmboni Bournemouth Aktiv 106 / 124 40% 1 09.09.2026 -
Giannis Apostolakis OFI Aktiv 116 / 117 40% 3 08.09.2026 -
João Muniz Sporting CP Aktiv 110 / 130 40% 1 08.09.2026 -
Thiago Villalba Vélez Aktiv 98 / 99 40% 1 07.09.2026 -
Kieran Chandler Minnesota United FC Aktiv 84 / 96 40% 2 30.08.2026 -
Chibueze Oputa Rangers International Aktiv 91 / 90 40% 1 30.08.2026 -
Giorgos Viktoros Nea Salamis Aktiv 81 / 76 40% 1 30.08.2026 -
David Chinagorom Abia Warriors Aktiv 78 / 83 40% 1 29.08.2026 -
Lautaro Quiroga Defensa y Justicia Aktiv 100 / 111 40% 1 26.08.2026 -
Lautaro Gaitán Colón Aktiv 105 / 117 40% 1 26.08.2026 -
Viery Fiorentina Aktiv 118 / 133 40% 1 25.08.2026 -
Elías Báez Atlanta United FC Aktiv 117 / 118 40% 1 24.08.2026 -
Tomás Jung Atlético Tucumán Aktiv 88 / 84 40% 1 24.08.2026 -
Lucas Noubi Deportivo La Coruña Aktiv 99 / 119 40% 1 24.08.2026 -
Juan Segundo Miretti River Plate Aktiv 87 / 102 40% 1 18.08.2026 -
Tom Atcheson Blackburn Rovers Aktiv 94 / 124 40% 1 18.08.2026 -
Itumeleng Zungu Free State Stars Aktiv 105 / 118 40% 1 15.08.2026 -
Josh Laqeretabua Charlton Athletic Aktiv 81 / 84 40% 1 15.08.2026 -
Charalabos Michalas Anorthosis Aktiv 74 / 77 40% 1 15.08.2026 -
Davíð Kristján Ólafsson AEL Larisa Aktiv 100 / 98 72% 1 10.08.2026 Befürworten
Francisco Razzeto Sarmiento Aktiv 85 / 104 40% 1 03.08.2026 -
Andreas Christou Omonoia Aktiv 79 / 86 40% 1 03.08.2026 -
Agustín Alvez San Lorenzo Aktiv 81 / 91 40% 1 03.08.2026 -
Kostas Kostoulas OFI Aktiv 109 / 106 40% 1 01.08.2026 -
Rodrigo Cabrera River Plate Aktiv 91 / 100 40% 1 01.08.2026 -